createdAt,value
2022-08-14T00:01:55.496Z,18.8
2022-08-14T00:05:58.291Z,18.7
2022-08-14T00:11:58.589Z,19
2022-08-14T00:13:01.360Z,18.9
2022-08-14T00:15:03.105Z,18.9
2022-08-14T00:17:04.799Z,18.8
2022-08-14T00:19:19.311Z,18.8
2022-08-14T00:27:17.242Z,18.7
2022-08-14T00:29:19.004Z,18.6
2022-08-14T00:31:20.826Z,18.4
2022-08-14T00:33:22.613Z,18.4
2022-08-14T00:37:29.675Z,18.3
2022-08-14T00:41:33.429Z,18.3
2022-08-14T00:43:35.021Z,18.3
2022-08-14T00:47:43.018Z,18.3
2022-08-14T00:49:43.881Z,18.1
2022-08-14T00:55:49.227Z,18.1
2022-08-14T00:57:51.007Z,18.1
2022-08-14T01:01:54.658Z,18.1
2022-08-14T01:06:01.636Z,17.9
2022-08-14T01:08:03.412Z,17.9
2022-08-14T01:10:27.276Z,17.9
2022-08-14T01:12:30.215Z,17.9
2022-08-14T01:14:30.824Z,17.8
2022-08-14T01:16:36.117Z,17.8
2022-08-14T01:18:37.913Z,17.8
2022-08-14T01:20:40.683Z,17.8
2022-08-14T01:22:42.996Z,17.7
2022-08-14T01:24:43.416Z,17.6
2022-08-14T01:26:47.418Z,17.7
2022-08-14T01:38:59.218Z,17.9
2022-08-14T01:41:01.010Z,17.8
2022-08-14T01:43:02.937Z,17.8
2022-08-14T01:45:08.071Z,17.7
2022-08-14T01:47:11.799Z,17.7
2022-08-14T01:49:11.668Z,17.7
2022-08-14T01:51:19.246Z,17.7
2022-08-14T01:53:15.259Z,17.6
2022-08-14T02:04:55.712Z,17.2
2022-08-14T02:06:33.761Z,17.2
2022-08-14T02:08:35.168Z,17.3
2022-08-14T02:10:36.608Z,17.2
2022-08-14T02:12:40.943Z,17.1
2022-08-14T02:15:00.508Z,17.2
2022-08-14T02:16:44.537Z,17.2
2022-08-14T02:28:59.613Z,16.9
2022-08-14T02:31:00.554Z,16.9
2022-08-14T02:33:02.333Z,17
2022-08-14T02:41:14.647Z,16.8
2022-08-14T02:43:16.393Z,16.9
2022-08-14T02:47:20.797Z,16.9
2022-08-14T02:49:21.769Z,16.9
2022-08-14T02:57:39.353Z,16.7
2022-08-14T02:59:34.289Z,16.7
2022-08-14T03:02:56.424Z,16.6
2022-08-14T03:04:40.481Z,16.6
2022-08-14T03:06:57.318Z,16.7
2022-08-14T03:08:47.567Z,16.6
2022-08-14T03:12:51.121Z,16.5
2022-08-14T03:16:54.660Z,16.4
2022-08-14T03:18:56.460Z,16.5
2022-08-14T03:23:04.470Z,16.6
2022-08-14T03:25:05.309Z,16.6
2022-08-14T03:29:13.983Z,16.4
2022-08-14T03:31:13.016Z,16.4
2022-08-14T03:33:12.407Z,16.4
2022-08-14T03:35:14.192Z,16.3
2022-08-14T03:37:37.590Z,16.3
2022-08-14T03:39:24.258Z,16.3
2022-08-14T03:41:23.518Z,16.3
2022-08-14T03:43:24.965Z,16.3
2022-08-14T03:49:30.268Z,16.2
2022-08-14T03:51:35.458Z,16.2
2022-08-14T03:55:39.013Z,16.3
2022-08-14T03:56:41.647Z,16.3
2022-08-14T04:00:45.303Z,16.2
2022-08-14T04:06:54.111Z,16.1
2022-08-14T04:12:59.457Z,15.9
2022-08-14T04:17:03.003Z,15.9
2022-08-14T04:23:23.206Z,16
2022-08-14T04:25:13.593Z,16
2022-08-14T04:29:17.142Z,16
2022-08-14T04:32:56.477Z,16.1
2022-08-14T04:33:24.482Z,16.3
2022-08-14T04:39:29.557Z,16.3
2022-08-14T04:41:31.362Z,16.3
2022-08-14T04:43:38.808Z,16.3
2022-08-14T04:45:34.926Z,16.4
2022-08-14T04:47:40.206Z,16.3
2022-08-14T04:49:46.769Z,16.3
2022-08-14T04:51:46.898Z,16.4
2022-08-14T04:56:02.743Z,16.4
2022-08-14T04:58:04.601Z,16.5
2022-08-14T05:02:11.671Z,16.6
2022-08-14T05:06:37.133Z,16.8
2022-08-14T05:08:32.343Z,16.9
2022-08-14T05:10:21.980Z,16.9
2022-08-14T05:14:45.545Z,17
2022-08-14T05:16:27.583Z,17.1
2022-08-14T05:19:16.608Z,17.2
2022-08-14T05:21:57.724Z,17.3
2022-08-14T05:22:32.949Z,17.4
2022-08-14T05:24:34.741Z,17.5
2022-08-14T05:26:36.511Z,17.5
2022-08-14T05:28:41.783Z,17.7
2022-08-14T05:36:50.643Z,17.8
2022-08-14T05:38:50.661Z,17.9
2022-08-14T05:44:59.539Z,18.2
2022-08-14T05:47:01.314Z,18.3
2022-08-14T05:48:03.962Z,18.9
2022-08-14T05:50:05.742Z,19
2022-08-14T05:52:09.927Z,19.4
2022-08-14T05:54:13.761Z,20.8
2022-08-14T05:58:16.370Z,20.1
2022-08-14T06:00:24.935Z,19.9
2022-08-14T06:02:21.783Z,19.8
2022-08-14T06:04:21.709Z,19.8
2022-08-14T06:06:23.486Z,19.8
2022-08-14T06:08:35.776Z,19.9
2022-08-14T06:10:30.601Z,22.3
2022-08-14T06:16:35.937Z,24.5
2022-08-14T06:20:39.473Z,24.7
2022-08-14T06:24:46.519Z,25.8
2022-08-14T06:26:51.997Z,26.2
2022-08-14T06:28:51.756Z,26.3
2022-08-14T06:30:51.806Z,26.3
2022-08-14T06:32:53.805Z,26.4
2022-08-14T06:35:03.456Z,26.8
2022-08-14T06:36:57.055Z,27.3
2022-08-14T06:39:02.325Z,27.2
2022-08-14T06:41:04.040Z,26.5
2022-08-14T06:43:06.986Z,27.3
2022-08-14T06:44:09.659Z,27.2
2022-08-14T06:46:12.933Z,27.3
2022-08-14T06:50:13.518Z,28.7
2022-08-14T06:52:18.697Z,28.8
2022-08-14T06:54:20.393Z,28.9
2022-08-14T06:56:22.091Z,28.5
2022-08-14T06:58:28.625Z,28.3
2022-08-14T07:00:27.234Z,27.6
2022-08-14T07:04:28.765Z,27.4
2022-08-14T07:06:46.760Z,27.9
2022-08-14T07:08:35.624Z,27.9
2022-08-14T07:10:37.288Z,28.3
2022-08-14T07:13:01.322Z,28.8
2022-08-14T07:28:55.551Z,29.3
2022-08-14T07:37:05.545Z,28.5
2022-08-14T07:39:13.114Z,28.6
2022-08-14T07:46:14.528Z,29
2022-08-14T07:54:30.305Z,29.5
2022-08-14T07:58:34.068Z,29.4
2022-08-14T08:04:35.384Z,28.9
2022-08-14T08:06:36.778Z,28.9
2022-08-14T08:08:38.221Z,29.3
2022-08-14T08:12:41.307Z,28.6
2022-08-14T08:14:56.957Z,29.2
2022-08-14T08:16:51.200Z,29.1
2022-08-14T08:20:53.347Z,29.5
2022-08-14T08:26:54.966Z,28.9
2022-08-14T08:35:06.299Z,28.7
2022-08-14T08:40:01.810Z,29.1
2022-08-14T08:43:38.298Z,29.3
2022-08-14T08:45:39.567Z,29.6
2022-08-14T08:47:40.990Z,29.2
2022-08-14T08:49:43.240Z,29.1
2022-08-14T08:51:43.856Z,29
2022-08-14T09:07:58.558Z,29.4
2022-08-14T09:10:00.766Z,29.2
2022-08-14T09:12:04.901Z,29.1
2022-08-14T09:14:06.250Z,29.1
2022-08-14T09:16:18.655Z,29.4
2022-08-14T09:18:09.029Z,29.5
2022-08-14T09:20:11.751Z,29.7
2022-08-14T09:22:35.173Z,29.6
2022-08-14T09:24:29.477Z,29.6
2022-08-14T09:26:20.818Z,30.1
2022-08-14T09:30:32.918Z,30.3
2022-08-14T09:31:23.316Z,30.2
2022-08-14T09:35:27.812Z,29.8
2022-08-14T09:39:32.436Z,30.1
2022-08-14T09:42:17.599Z,30.3
2022-08-14T09:43:35.100Z,30.3
2022-08-14T09:45:40.179Z,30.3
2022-08-14T09:47:37.855Z,30.8
2022-08-14T09:49:39.992Z,30.7
2022-08-14T09:51:51.973Z,30.4
2022-08-14T09:54:19.623Z,30.3
2022-08-14T09:55:46.822Z,30.4
2022-08-14T09:57:48.192Z,30.5
2022-08-14T09:59:50.408Z,30.8
2022-08-14T10:01:52.677Z,30.7
2022-08-14T10:03:52.396Z,30.6
2022-08-14T10:05:53.690Z,30.9
2022-08-14T10:07:59.191Z,30.4
2022-08-14T10:12:01.273Z,31
2022-08-14T10:14:02.612Z,31.3
2022-08-14T10:18:05.347Z,31.1
2022-08-14T10:24:12.871Z,31.6
2022-08-14T10:27:16.633Z,31.2
2022-08-14T10:29:23.367Z,30.9
2022-08-14T10:31:19.726Z,31.2
2022-08-14T10:33:20.673Z,31.5
2022-08-14T10:35:31.844Z,31.5
2022-08-14T10:37:27.949Z,31.7
2022-08-14T10:39:28.201Z,31.7
2022-08-14T10:43:31.663Z,31.5
2022-08-14T10:45:34.037Z,31.6
2022-08-14T10:47:39.023Z,31.3
2022-08-14T10:49:38.260Z,31.4
2022-08-14T10:53:40.902Z,32.2
2022-08-14T10:55:45.058Z,32.4
2022-08-14T10:57:43.535Z,32.2
2022-08-14T11:03:55.849Z,32
2022-08-14T11:15:58.822Z,32
2022-08-14T11:23:09.091Z,32.7
2022-08-14T11:25:09.905Z,32.6
2022-08-14T11:27:11.217Z,32.8
2022-08-14T11:29:12.474Z,33.3
2022-08-14T11:31:17.227Z,32.3
2022-08-14T11:33:18.524Z,32.4
2022-08-14T11:35:19.841Z,33.3
2022-08-14T11:39:33.279Z,33.1
2022-08-14T11:43:29.446Z,33.5
2022-08-14T11:49:34.101Z,34.2
2022-08-14T11:51:42.943Z,33.9
2022-08-14T11:53:34.825Z,33.9
2022-08-14T11:55:36.107Z,34.3
2022-08-14T11:59:44.442Z,33.9
2022-08-14T12:01:43.433Z,33.7
2022-08-14T12:03:51.534Z,34.7
2022-08-14T12:05:46.139Z,34.7
2022-08-14T12:07:48.213Z,35.7
2022-08-14T12:09:48.546Z,35.4
2022-08-14T12:11:51.488Z,34.6
2022-08-14T12:13:55.985Z,34.7
2022-08-14T12:15:55.902Z,34.7
2022-08-14T12:17:57.169Z,35.9
2022-08-14T12:20:30.192Z,36.5
2022-08-14T12:22:29.548Z,36.8
2022-08-14T12:24:36.353Z,37.5
2022-08-14T12:26:39.545Z,37.7
2022-08-14T12:28:33.679Z,37.7
2022-08-14T12:34:32.599Z,36.8
2022-08-14T12:36:33.943Z,34
2022-08-14T12:38:35.888Z,32.9
2022-08-14T12:48:44.921Z,34.9
2022-08-14T12:56:53.500Z,35.2
2022-08-14T12:58:54.792Z,34.4
2022-08-14T13:01:16.333Z,32.1
2022-08-14T13:02:57.480Z,32
2022-08-14T13:04:58.744Z,31.8
2022-08-14T13:07:00.100Z,31.4
2022-08-14T13:09:04.888Z,31.9
2022-08-14T13:11:06.220Z,32.8
2022-08-14T13:13:15.235Z,32
2022-08-14T13:14:17.011Z,31.2
2022-08-14T13:16:20.569Z,31.1
2022-08-14T13:18:12.787Z,31.2
2022-08-14T13:20:24.507Z,31.4
2022-08-14T13:22:19.505Z,32.9
2022-08-14T13:26:21.812Z,33.4
2022-08-14T13:30:24.601Z,34
2022-08-14T13:34:27.354Z,34.2
2022-08-14T13:36:51.566Z,33.8
2022-08-14T13:40:34.961Z,34.4
2022-08-14T13:42:36.418Z,34.6
2022-08-14T13:44:37.702Z,34.6
2022-08-14T13:46:39.065Z,33.4
2022-08-14T13:48:40.436Z,32.6
2022-08-14T13:50:45.273Z,32.6
2022-08-14T13:52:52.682Z,33.3
2022-08-14T13:54:51.058Z,33.9
2022-08-14T13:56:49.450Z,34
2022-08-14T13:58:50.717Z,32.9
2022-08-14T14:00:52.988Z,33.4
2022-08-14T14:02:53.405Z,33.3
2022-08-14T14:04:58.249Z,32.5
2022-08-14T14:06:59.616Z,33
2022-08-14T14:09:01.014Z,33.1
2022-08-14T14:12:04.776Z,33.7
2022-08-14T14:14:06.147Z,33.7
2022-08-14T14:18:15.290Z,34.2
2022-08-14T14:22:35.630Z,34.3
2022-08-14T14:32:31.061Z,32.4
2022-08-14T14:42:35.355Z,32.1
2022-08-14T14:44:35.226Z,33.1
2022-08-14T14:46:42.042Z,34
2022-08-14T14:50:42.857Z,34.2
2022-08-14T14:52:44.241Z,34.3
2022-08-14T14:54:45.621Z,34.4
2022-08-14T14:56:50.998Z,34.3
2022-08-14T14:58:48.389Z,34.2
2022-08-14T15:00:53.252Z,34.2
2022-08-14T15:02:57.735Z,34.3
2022-08-14T15:04:55.994Z,34.1
2022-08-14T15:05:58.394Z,34.4
2022-08-14T15:12:02.457Z,34.5
2022-08-14T15:14:56.302Z,34.6
2022-08-14T15:24:20.705Z,35.1
2022-08-14T15:26:23.981Z,35.5
2022-08-14T15:28:21.112Z,34.4
2022-08-14T15:32:23.518Z,34.3
2022-08-14T15:36:25.856Z,34.1
2022-08-14T15:38:26.766Z,33.8
2022-08-14T15:44:36.726Z,32.8
2022-08-14T15:46:43.018Z,32.9
2022-08-14T15:50:38.289Z,33.1
2022-08-14T15:54:40.970Z,33.6
2022-08-14T15:56:45.776Z,34
2022-08-14T15:58:47.135Z,34
2022-08-14T16:00:49.270Z,33.9
2022-08-14T16:03:08.754Z,34.1
2022-08-14T16:05:06.972Z,34.1
2022-08-14T16:11:14.551Z,33.9
2022-08-14T16:13:17.075Z,34.5
2022-08-14T16:15:17.301Z,33.8
2022-08-14T16:17:18.662Z,33.4
2022-08-14T16:23:26.275Z,32.2
2022-08-14T16:29:30.444Z,33
2022-08-14T16:31:36.007Z,33.6
2022-08-14T16:34:00.193Z,33.8
2022-08-14T16:35:42.526Z,34.3
2022-08-14T16:39:40.995Z,34.1
2022-08-14T16:41:45.669Z,33.8
2022-08-14T16:43:43.751Z,33.7
2022-08-14T16:47:47.781Z,33.8
2022-08-14T16:50:03.853Z,33.9
2022-08-14T16:51:53.214Z,33.7
2022-08-14T16:53:54.313Z,33.6
2022-08-14T16:55:55.912Z,33.4
2022-08-14T17:05:07.386Z,32
2022-08-14T17:07:08.777Z,32
2022-08-14T17:09:10.222Z,31.7
2022-08-14T17:11:12.802Z,31.7
2022-08-14T17:13:13.094Z,31.6
2022-08-14T17:15:14.932Z,31.5
2022-08-14T17:17:15.990Z,31.4
2022-08-14T17:21:26.694Z,31.1
2022-08-14T17:23:23.807Z,31
2022-08-14T17:25:25.277Z,31
2022-08-14T17:27:26.743Z,30.9
2022-08-14T17:29:29.646Z,30.8
2022-08-14T17:33:40.621Z,30.7
2022-08-14T17:35:57.345Z,30.7
2022-08-14T17:37:37.725Z,30.5
2022-08-14T17:41:43.630Z,30.3
2022-08-14T17:43:42.274Z,30.3
2022-08-14T17:45:43.654Z,30.1
2022-08-14T17:49:51.712Z,30.1
2022-08-14T17:51:53.453Z,30
2022-08-14T17:52:54.345Z,29.8
2022-08-14T17:55:00.651Z,29.7
2022-08-14T17:56:57.501Z,29.6
2022-08-14T17:58:58.961Z,29.5
2022-08-14T18:01:04.873Z,29.3
2022-08-14T18:03:05.783Z,29.3
2022-08-14T18:05:08.274Z,29.2
2022-08-14T18:17:20.614Z,28.2
2022-08-14T18:19:22.276Z,28.1
2022-08-14T18:21:56.703Z,27.9
2022-08-14T18:23:25.550Z,27.8
2022-08-14T18:25:27.151Z,27.7
2022-08-14T18:29:33.972Z,27.5
2022-08-14T18:31:43.473Z,27.4
2022-08-14T18:33:42.239Z,27.4
2022-08-14T18:41:43.951Z,26.8
2022-08-14T18:45:52.209Z,26.5
2022-08-14T18:48:14.238Z,26.3
2022-08-14T18:48:55.080Z,26.2
2022-08-14T18:50:56.769Z,26.1
2022-08-14T18:52:58.447Z,26.1
2022-08-14T18:59:07.056Z,25.8
2022-08-14T19:01:08.729Z,25.7
2022-08-14T19:03:10.438Z,25.8
2022-08-14T19:05:12.390Z,25.8
2022-08-14T19:07:16.325Z,25.7
2022-08-14T19:09:15.516Z,25.5
2022-08-14T19:13:22.440Z,25.2
2022-08-14T19:15:25.692Z,25
2022-08-14T19:17:25.852Z,25
2022-08-14T19:21:29.725Z,24.9
2022-08-14T19:23:44.386Z,24.9
2022-08-14T19:25:36.223Z,24.7
2022-08-14T19:27:38.028Z,24.7
2022-08-14T19:29:39.931Z,24.7
2022-08-14T19:33:43.084Z,24.6
2022-08-14T19:35:55.268Z,24.6
2022-08-14T19:37:46.503Z,24.6
2022-08-14T19:43:57.391Z,24.4
2022-08-14T19:46:38.585Z,24.3
2022-08-14T19:52:29.737Z,24.3
2022-08-14T19:54:28.916Z,24.2
2022-08-14T20:11:01.057Z,23.8
2022-08-14T20:14:51.728Z,23.7
2022-08-14T20:18:54.701Z,23.6
2022-08-14T20:21:01.525Z,23.5
2022-08-14T20:23:11.590Z,23.5
2022-08-14T20:27:06.727Z,23.4
2022-08-14T20:29:08.462Z,23.4
2022-08-14T20:31:10.186Z,23.4
2022-08-14T20:33:11.923Z,23.3
2022-08-14T20:37:22.446Z,23.3
2022-08-14T20:39:20.657Z,23.4
2022-08-14T20:42:25.008Z,23.2
2022-08-14T20:44:28.643Z,23.1
2022-08-14T20:46:29.951Z,23.1
2022-08-14T20:48:52.916Z,23
2022-08-14T20:50:35.487Z,23
2022-08-14T20:52:37.189Z,22.9
2022-08-14T20:54:50.614Z,22.9
2022-08-14T20:58:44.230Z,22.8
2022-08-14T21:00:52.523Z,22.8
2022-08-14T21:02:50.869Z,22.6
2022-08-14T21:04:51.179Z,22.7
2022-08-14T21:07:25.469Z,22.7
2022-08-14T21:08:54.691Z,22.7
2022-08-14T21:14:09.051Z,22.5
2022-08-14T21:14:59.948Z,22.4
2022-08-14T21:17:05.245Z,22.4
2022-08-14T21:27:22.014Z,22.4
2022-08-14T21:29:15.748Z,22.4
2022-08-14T21:33:22.766Z,22.5
2022-08-14T21:35:24.527Z,22.4
2022-08-14T21:44:43.057Z,22.4
2022-08-14T21:52:50.532Z,22.1
2022-08-14T21:56:56.851Z,22
2022-08-14T21:58:56.221Z,22.1
2022-08-14T22:00:55.318Z,22.1
2022-08-14T22:02:57.034Z,22.1
2022-08-14T22:04:58.820Z,22.2
2022-08-14T22:07:00.543Z,22.1
2022-08-14T22:09:02.314Z,22
2022-08-14T22:15:11.130Z,21.9
2022-08-14T22:17:16.513Z,22
2022-08-14T22:19:14.649Z,22
2022-08-14T22:21:16.433Z,22
2022-08-14T22:23:18.165Z,21.9
2022-08-14T22:25:19.919Z,21.8
2022-08-14T22:27:25.184Z,21.8
2022-08-14T22:29:26.950Z,21.8
2022-08-14T22:31:34.813Z,21.7
2022-08-14T22:32:55.889Z,21.7
2022-08-14T22:34:33.087Z,21.6
2022-08-14T22:38:39.095Z,21.5
2022-08-14T22:41:01.766Z,21.4
2022-08-14T22:42:57.394Z,21.4
2022-08-14T22:44:45.392Z,21.3
2022-08-14T22:46:47.157Z,21.4
2022-08-14T22:48:48.919Z,21.4
2022-08-14T22:50:53.550Z,21.5
2022-08-14T22:52:52.443Z,21.6
2022-08-14T22:54:58.933Z,21.4
2022-08-14T23:01:06.495Z,21.5
2022-08-14T23:03:04.837Z,21.4
2022-08-14T23:05:06.575Z,21.3
2022-08-14T23:07:21.873Z,21.2
2022-08-14T23:11:15.325Z,21
2022-08-14T23:13:17.104Z,21
2022-08-14T23:19:23.817Z,21
2022-08-14T23:23:29.430Z,21.1
2022-08-14T23:46:14.857Z,21.1
2022-08-14T23:54:48.494Z,21.2
2022-08-14T23:56:31.747Z,21.2
2022-08-14T23:58:29.617Z,21.2
